Nanyue, China
Current Conditions -  °F | °C
As of 6:00 PM on Monday 22 Dec 2014 (Local Time) from ZGHA Reporting Station
Clear Clear  
Wind Chill: 44°   Ceiling: Unl
Heat Index: 48°   Visibility: 5mi
Dew Point: 23°   Wind: 9mph
Humidity: 37%   Direction: 90°E
Pressure: 30.21"   Gusts: NA
Location:  27.3°N, 112.7°E
Report Text: ZGHA 221000Z 09004MPS 8000 NSC 09/M05 Q1023 NOSIG
Loading
Personal Weather Stations






























Interactive Weather Map New forecast layout! Learn more

10-Day Weather Forecast

Advertisements
Track Severe Weather on mobile